createdAt,value
2018-01-22T00:00:22.336Z,5.9
2018-01-22T00:01:22.345Z,5.8
2018-01-22T00:02:22.281Z,5.8
2018-01-22T00:03:22.188Z,5.9
2018-01-22T00:04:22.512Z,5.9
2018-01-22T00:05:22.264Z,5.8
2018-01-22T00:06:22.118Z,5.9
2018-01-22T00:07:21.558Z,5.9
2018-01-22T00:08:22.146Z,5.9
2018-01-22T00:09:21.551Z,5.9
2018-01-22T00:10:21.605Z,5.9
2018-01-22T00:11:21.768Z,5.9
2018-01-22T00:12:21.824Z,5.8
2018-01-22T00:13:21.611Z,5.8
2018-01-22T00:14:21.698Z,5.8
2018-01-22T00:15:21.746Z,5.8
2018-01-22T00:16:21.129Z,5.8
2018-01-22T00:17:21.297Z,5.8
2018-01-22T00:18:20.950Z,5.8
2018-01-22T00:19:21.092Z,5.8
2018-01-22T00:20:20.964Z,5.8
2018-01-22T00:21:21.081Z,5.8
2018-01-22T00:22:20.817Z,5.8
2018-01-22T00:23:20.725Z,5.8
2018-01-22T00:24:21.037Z,5.8
2018-01-22T00:25:20.663Z,5.8
2018-01-22T00:26:20.806Z,5.9
2018-01-22T00:27:20.836Z,5.9
2018-01-22T00:28:20.394Z,5.9
2018-01-22T00:29:20.310Z,5.9
2018-01-22T00:30:20.132Z,5.9
2018-01-22T00:31:20.537Z,5.9
2018-01-22T00:32:20.023Z,5.9
2018-01-22T00:33:20.031Z,5.9
2018-01-22T00:34:20.058Z,5.9
2018-01-22T00:35:19.946Z,5.9
2018-01-22T00:36:19.680Z,5.9
2018-01-22T00:37:19.867Z,5.9
2018-01-22T00:38:19.506Z,5.9
2018-01-22T00:39:19.842Z,5.9
2018-01-22T00:40:20.171Z,5.9
2018-01-22T00:41:19.481Z,5.9
2018-01-22T00:42:19.529Z,5.9
2018-01-22T00:43:19.556Z,5.9
2018-01-22T00:44:19.276Z,5.9
2018-01-22T00:45:19.115Z,5.9
2018-01-22T00:46:19.284Z,5.9
2018-01-22T00:47:18.959Z,5.9
2018-01-22T00:48:18.905Z,5.9
2018-01-22T00:49:19.347Z,5.9
2018-01-22T00:50:19.041Z,5.9
2018-01-22T00:51:18.685Z,5.9
2018-01-22T00:52:18.652Z,5.9
2018-01-22T00:53:18.535Z,5.9
2018-01-22T00:54:19.031Z,5.9
2018-01-22T00:55:18.462Z,5.9
2018-01-22T00:56:18.632Z,5.9
2018-01-22T00:57:18.666Z,5.9
2018-01-22T00:58:18.101Z,5.9
2018-01-22T00:59:18.261Z,5.9
2018-01-22T01:00:18.438Z,5.9
2018-01-22T01:01:18.018Z,5.9
2018-01-22T01:02:17.842Z,5.9
2018-01-22T01:03:17.978Z,5.9
2018-01-22T01:04:17.921Z,5.9
2018-01-22T01:05:17.641Z,5.9
2018-01-22T01:06:17.795Z,5.9
2018-01-22T01:07:17.588Z,6
2018-01-22T01:08:17.562Z,6
2018-01-22T01:09:17.469Z,5.9
2018-01-22T01:10:17.591Z,5.9
2018-01-22T01:11:17.231Z,5.9
2018-01-22T01:12:17.373Z,5.9
2018-01-22T01:13:17.305Z,5.9
2018-01-22T01:14:17.134Z,5.9
2018-01-22T01:15:17.852Z,5.9
2018-01-22T01:16:17.621Z,5.9
2018-01-22T01:17:16.778Z,5.9
2018-01-22T01:18:16.735Z,5.9
2018-01-22T01:19:16.940Z,5.9
2018-01-22T01:20:16.690Z,5.9
2018-01-22T01:21:16.603Z,5.9
2018-01-22T01:22:16.622Z,5.9
2018-01-22T01:23:16.687Z,5.9
2018-01-22T01:24:16.438Z,5.8
2018-01-22T01:25:16.267Z,5.8
2018-01-22T01:26:16.106Z,5.8
2018-01-22T01:27:16.386Z,5.8
2018-01-22T01:28:16.050Z,5.8
2018-01-22T01:29:16.434Z,5.9
2018-01-22T01:30:16.237Z,5.8
2018-01-22T01:31:15.831Z,5.9
2018-01-22T01:32:15.911Z,5.9
2018-01-22T01:33:15.709Z,5.9
2018-01-22T01:34:15.625Z,5.9
2018-01-22T01:35:16.150Z,5.9
2018-01-22T01:36:15.493Z,5.9
2018-01-22T01:37:15.638Z,5.9
2018-01-22T01:38:15.569Z,5.9
2018-01-22T01:39:15.486Z,5.9
2018-01-22T01:40:15.306Z,5.9
2018-01-22T01:41:15.601Z,5.9
2018-01-22T01:42:15.288Z,5.9
2018-01-22T01:43:15.315Z,5.9
2018-01-22T01:44:15.053Z,5.9
2018-01-22T01:45:14.786Z,5.9
2018-01-22T01:46:15.161Z,5.9
2018-01-22T01:47:14.861Z,5.9
2018-01-22T01:48:15.237Z,5.9
2018-01-22T01:49:15.018Z,5.9
2018-01-22T01:50:14.860Z,5.9
2018-01-22T01:51:14.747Z,5.9
2018-01-22T01:52:14.802Z,5.9
2018-01-22T01:53:14.811Z,5.9
2018-01-22T01:54:14.926Z,5.9
2018-01-22T01:55:14.310Z,5.9
2018-01-22T01:56:14.236Z,5.9
2018-01-22T01:57:14.022Z,5.9
2018-01-22T01:58:14.543Z,5.9
2018-01-22T01:59:13.918Z,5.9
2018-01-22T02:00:14.544Z,5.9
2018-01-22T02:01:13.851Z,5.9
2018-01-22T02:02:14.083Z,5.9
2018-01-22T02:03:13.831Z,5.9
2018-01-22T02:04:13.736Z,5.9
2018-01-22T02:05:13.989Z,5.9
2018-01-22T02:06:13.824Z,5.9
2018-01-22T02:07:13.665Z,5.9
2018-01-22T02:08:13.308Z,5.9
2018-01-22T02:09:13.556Z,5.9
2018-01-22T02:10:13.755Z,5.9
2018-01-22T02:11:13.369Z,5.9
2018-01-22T02:12:13.400Z,5.9
2018-01-22T02:13:12.942Z,5.9
2018-01-22T02:14:13.052Z,5.9
2018-01-22T02:15:13.187Z,5.9
2018-01-22T02:16:13.014Z,5.9
2018-01-22T02:17:12.870Z,5.9
2018-01-22T02:18:12.924Z,5.9
2018-01-22T02:19:12.661Z,5.9
2018-01-22T02:20:12.751Z,5.9
2018-01-22T02:21:12.814Z,5.9
2018-01-22T02:22:12.311Z,5.9
2018-01-22T02:23:12.448Z,5.9
2018-01-22T02:24:12.601Z,5.9
2018-01-22T02:25:12.200Z,5.9
2018-01-22T02:26:12.170Z,5.9
2018-01-22T02:27:12.070Z,5.9
2018-01-22T02:28:12.287Z,5.9
2018-01-22T02:29:11.917Z,5.9
2018-01-22T02:30:12.500Z,5.9
2018-01-22T02:31:11.724Z,5.9
2018-01-22T02:32:11.743Z,5.9
2018-01-22T02:33:11.832Z,5.9
2018-01-22T02:34:11.666Z,5.9
2018-01-22T02:35:11.871Z,5.9
2018-01-22T02:36:11.929Z,5.9
2018-01-22T02:37:11.794Z,5.8
2018-01-22T02:38:11.246Z,5.8
2018-01-22T02:39:11.577Z,5.8
2018-01-22T02:40:11.192Z,5.8
2018-01-22T02:41:11.225Z,5.8
2018-01-22T02:42:11.633Z,5.8
2018-01-22T02:43:11.177Z,5.7
2018-01-22T02:44:11.020Z,5.7
2018-01-22T02:45:10.667Z,5.7
2018-01-22T02:46:10.741Z,5.7
2018-01-22T02:47:10.702Z,5.7
2018-01-22T02:48:10.633Z,5.7
2018-01-22T02:49:10.473Z,5.6
2018-01-22T02:50:11.074Z,5.6
2018-01-22T02:51:10.391Z,5.6
2018-01-22T02:52:10.264Z,5.6
2018-01-22T02:53:10.693Z,5.6
2018-01-22T02:54:10.225Z,5.6
2018-01-22T02:55:10.050Z,5.6
2018-01-22T02:56:10.185Z,5.6
2018-01-22T02:57:10.056Z,5.6
2018-01-22T02:58:09.934Z,5.6
2018-01-22T02:59:10.156Z,5.6
2018-01-22T03:00:09.836Z,5.6
2018-01-22T03:01:09.755Z,5.6
2018-01-22T03:02:09.755Z,5.5
2018-01-22T03:03:09.692Z,5.5
2018-01-22T03:04:09.326Z,5.5
2018-01-22T03:05:09.467Z,5.5
2018-01-22T03:06:09.216Z,5.5
2018-01-22T03:07:09.397Z,5.6
2018-01-22T03:08:09.245Z,5.6
2018-01-22T03:09:09.007Z,5.6
2018-01-22T03:10:09.563Z,5.6
2018-01-22T03:11:08.961Z,5.6
2018-01-22T03:12:08.863Z,5.5
2018-01-22T03:13:08.921Z,5.5
2018-01-22T03:14:09.037Z,5.5
2018-01-22T03:15:08.605Z,5.5
2018-01-22T03:16:08.904Z,5.5
2018-01-22T03:17:08.601Z,5.5
2018-01-22T03:18:08.456Z,5.5
2018-01-22T03:19:08.486Z,5.5
2018-01-22T03:20:08.226Z,5.6
2018-01-22T03:21:08.449Z,5.5
2018-01-22T03:22:08.778Z,5.5
2018-01-22T03:23:08.421Z,5.5
2018-01-22T03:24:08.220Z,5.5
2018-01-22T03:25:08.253Z,5.5
2018-01-22T03:26:08.033Z,5.5
2018-01-22T03:27:07.850Z,5.5
2018-01-22T03:28:07.867Z,5.4
2018-01-22T03:29:07.804Z,5.4
2018-01-22T03:30:07.536Z,5.5
2018-01-22T03:31:07.458Z,5.5
2018-01-22T03:32:07.728Z,5.5
2018-01-22T03:33:07.542Z,5.5
2018-01-22T03:34:07.481Z,5.5
2018-01-22T03:35:07.711Z,5.5
2018-01-22T03:36:07.112Z,5.5
2018-01-22T03:37:07.173Z,5.5
2018-01-22T03:38:07.412Z,5.5
2018-01-22T03:39:07.007Z,5.5
2018-01-22T03:40:06.993Z,5.4
2018-01-22T03:41:07.575Z,5.5
2018-01-22T03:42:07.288Z,5.4
2018-01-22T03:43:06.804Z,5.5
2018-01-22T03:44:07.446Z,5.5
2018-01-22T03:45:06.714Z,5.4
2018-01-22T03:46:06.547Z,5.5
2018-01-22T03:47:06.747Z,5.5
2018-01-22T03:48:06.643Z,5.4
2018-01-22T03:49:06.513Z,5.5
2018-01-22T03:50:06.451Z,5.5
2018-01-22T03:51:06.496Z,5.4
2018-01-22T03:52:06.031Z,5.5
2018-01-22T03:53:06.340Z,5.5
2018-01-22T03:54:06.074Z,5.5
2018-01-22T03:55:05.833Z,5.5
2018-01-22T03:56:05.832Z,5.6
2018-01-22T03:57:06.716Z,5.6
2018-01-22T03:58:05.825Z,5.5
2018-01-22T03:59:06.118Z,5.5
2018-01-22T04:00:05.748Z,5.5
2018-01-22T04:01:05.486Z,5.5
2018-01-22T04:02:05.448Z,5.5
2018-01-22T04:03:05.723Z,5.5
2018-01-22T04:04:05.880Z,5.5
2018-01-22T04:05:05.233Z,5.4
2018-01-22T04:06:05.555Z,5.5
2018-01-22T04:07:05.581Z,5.5
2018-01-22T04:08:05.099Z,5.5
2018-01-22T04:09:05.171Z,5.5
2018-01-22T04:10:05.074Z,5.5
2018-01-22T04:11:04.826Z,5.5
2018-01-22T04:12:05.057Z,5.4
2018-01-22T04:13:04.992Z,5.5
2018-01-22T04:14:04.805Z,5.5
2018-01-22T04:15:04.441Z,5.5
2018-01-22T04:16:04.647Z,5.5
2018-01-22T04:17:05.046Z,5.5
2018-01-22T04:18:04.510Z,5.5
2018-01-22T04:19:04.345Z,5.5
2018-01-22T04:20:04.630Z,5.5
2018-01-22T04:21:04.304Z,5.4
2018-01-22T04:22:04.134Z,5.5
2018-01-22T04:23:04.661Z,5.5
2018-01-22T04:24:04.158Z,5.4
2018-01-22T04:25:03.939Z,5.4
2018-01-22T04:26:03.784Z,5.4
2018-01-22T04:27:04.205Z,5.4
2018-01-22T04:28:03.824Z,5.4
2018-01-22T04:29:03.593Z,5.4
2018-01-22T04:30:04.077Z,5.5
2018-01-22T04:31:03.784Z,5.4
2018-01-22T04:32:03.651Z,5.4
2018-01-22T04:33:03.769Z,5.4
2018-01-22T04:34:03.319Z,5.4
2018-01-22T04:35:03.450Z,5.4
2018-01-22T04:36:03.546Z,5.4
2018-01-22T04:37:03.124Z,5.4
2018-01-22T04:38:02.851Z,5.5
2018-01-22T04:39:03.182Z,5.4
2018-01-22T04:40:02.813Z,5.4
2018-01-22T04:41:02.814Z,5.5
2018-01-22T04:42:03.126Z,5.4
2018-01-22T04:43:03.261Z,5.5
2018-01-22T04:44:02.715Z,5.4
2018-01-22T04:45:02.554Z,5.4
2018-01-22T04:46:02.974Z,5.4
2018-01-22T04:47:02.305Z,5.4
2018-01-22T04:48:02.356Z,5.4
2018-01-22T04:49:02.414Z,5.4
2018-01-22T04:50:02.762Z,5.4
2018-01-22T04:51:02.289Z,5.4
2018-01-22T04:52:02.066Z,5.4
2018-01-22T04:53:02.446Z,5.4
2018-01-22T04:54:01.912Z,5.4
2018-01-22T04:55:02.072Z,5.4
2018-01-22T04:56:01.615Z,5.4
2018-01-22T04:57:01.928Z,5.4
2018-01-22T04:58:01.863Z,5.4
2018-01-22T04:59:01.513Z,5.4
2018-01-22T05:00:01.628Z,5.4
2018-01-22T05:01:01.731Z,5.4
2018-01-22T05:02:01.558Z,5.4
2018-01-22T05:03:01.339Z,5.4
2018-01-22T05:04:01.176Z,5.4
2018-01-22T05:05:01.275Z,5.4
2018-01-22T05:06:00.924Z,5.4
2018-01-22T05:07:01.274Z,5.4
2018-01-22T05:08:01.246Z,5.4
2018-01-22T05:09:00.997Z,5.4
2018-01-22T05:10:00.834Z,5.4
2018-01-22T05:11:01.070Z,5.4
2018-01-22T05:12:00.785Z,5.4
2018-01-22T05:13:01.034Z,4.8
2018-01-22T05:14:00.874Z,4.3
2018-01-22T05:15:00.788Z,3.8
2018-01-22T05:16:00.557Z,3.4
2018-01-22T05:17:00.547Z,3.1
2018-01-22T05:18:00.582Z,2.8
2018-01-22T05:19:00.138Z,2.6
2018-01-22T05:19:59.948Z,2.4
2018-01-22T05:21:00.047Z,2.2
2018-01-22T05:21:59.977Z,2.1
2018-01-22T05:22:59.827Z,1.9
2018-01-22T05:23:59.943Z,1.8
2018-01-22T05:24:59.905Z,1.7
2018-01-22T05:25:59.720Z,1.6
2018-01-22T05:26:59.653Z,1.6
2018-01-22T05:27:59.481Z,1.5
2018-01-22T05:28:59.529Z,1.4
2018-01-22T05:29:59.381Z,1.4
2018-01-22T05:30:59.482Z,1.4
2018-01-22T05:31:59.601Z,1.4
2018-01-22T05:32:59.291Z,1.3
2018-01-22T05:33:59.084Z,1.3
2018-01-22T05:34:59.587Z,1.3
2018-01-22T05:35:59.352Z,1.3
2018-01-22T05:36:58.983Z,1.3
2018-01-22T05:37:58.982Z,1.3
2018-01-22T05:38:58.745Z,1.2
2018-01-22T05:39:58.760Z,1.2
2018-01-22T05:40:58.952Z,1.2
2018-01-22T05:41:58.618Z,1.2
2018-01-22T05:42:58.383Z,1.1
2018-01-22T05:43:58.583Z,1.1
2018-01-22T05:44:58.600Z,1.1
2018-01-22T05:45:58.232Z,1
2018-01-22T05:46:58.269Z,1
2018-01-22T05:47:58.584Z,1
2018-01-22T05:48:58.175Z,0.9
2018-01-22T05:49:58.077Z,0.9
2018-01-22T05:50:57.902Z,0.9
2018-01-22T05:51:58.139Z,0.9
2018-01-22T05:52:58.091Z,0.8
2018-01-22T05:53:58.572Z,0.8
2018-01-22T05:54:57.988Z,0.7
2018-01-22T05:55:57.554Z,0.7
2018-01-22T05:56:57.651Z,0.7
2018-01-22T05:57:57.587Z,0.7
2018-01-22T05:58:57.457Z,0.6
2018-01-22T05:59:57.254Z,0.6
2018-01-22T06:00:57.203Z,0.6
2018-01-22T06:01:57.404Z,0.6
2018-01-22T06:02:57.276Z,0.6
2018-01-22T06:03:57.441Z,0.7
2018-01-22T06:04:57.347Z,0.7
2018-01-22T06:05:56.972Z,0.7
2018-01-22T06:06:56.883Z,0.6
2018-01-22T06:07:57.222Z,0.6
2018-01-22T06:08:56.708Z,0.6
2018-01-22T06:09:56.569Z,0.7
2018-01-22T06:10:56.621Z,0.7
2018-01-22T06:11:56.726Z,0.7
2018-01-22T06:12:56.497Z,0.8
2018-01-22T06:13:56.644Z,0.8
2018-01-22T06:14:56.370Z,0.8
2018-01-22T06:15:56.995Z,0.7
2018-01-22T06:16:56.695Z,0.6
2018-01-22T06:17:56.140Z,0.7
2018-01-22T06:18:56.048Z,0.8
2018-01-22T06:19:56.188Z,0.8
2018-01-22T06:20:56.257Z,0.7
2018-01-22T06:21:56.058Z,0.7
2018-01-22T06:22:55.796Z,0.8
2018-01-22T06:23:55.916Z,0.7
2018-01-22T06:24:55.652Z,0.8
2018-01-22T06:25:55.501Z,0.8
2018-01-22T06:26:55.858Z,0.8
2018-01-22T06:27:55.445Z,0.8
2018-01-22T06:28:55.640Z,0.9
2018-01-22T06:29:55.116Z,0.9
2018-01-22T06:30:55.335Z,0.8
2018-01-22T06:31:55.253Z,0.9
2018-01-22T06:32:55.331Z,0.9
2018-01-22T07:01:53.065Z,0.9
2018-01-22T07:02:52.940Z,0.9
2018-01-22T07:03:53.065Z,0.9
2018-01-22T07:04:53.065Z,0.9
2018-01-22T07:05:52.924Z,1
2018-01-22T07:06:52.862Z,1
2018-01-22T07:07:52.755Z,1.1
2018-01-22T07:08:52.510Z,1.1
2018-01-22T07:09:52.844Z,1.1
2018-01-22T07:10:52.373Z,1.1
2018-01-22T07:11:52.539Z,1.2
2018-01-22T07:12:52.354Z,1.2
2018-01-22T07:13:52.291Z,1.1
2018-01-22T07:14:52.610Z,1.2
2018-01-22T07:15:52.128Z,1.1
2018-01-22T07:16:52.363Z,1.1
2018-01-22T07:17:51.917Z,1.1
2018-01-22T07:18:52.100Z,1.2
2018-01-22T07:19:52.390Z,1.2
2018-01-22T07:20:52.111Z,1.3
2018-01-22T07:21:52.102Z,1.2
2018-01-22T07:22:51.785Z,1.1
2018-01-22T07:23:51.851Z,1.1
2018-01-22T07:24:51.313Z,1.3
2018-01-22T07:25:51.444Z,1.3
2018-01-22T07:26:51.759Z,1.3
2018-01-22T07:27:51.416Z,1.2
2018-01-22T07:28:51.277Z,1.3
2018-01-22T07:29:51.362Z,1.3
2018-01-22T07:30:51.088Z,1.2
2018-01-22T07:31:51.246Z,1.3
2018-01-22T07:32:50.864Z,1.2
2018-01-22T07:33:50.887Z,1.3
2018-01-22T07:34:51.115Z,1.3
2018-01-22T07:35:50.928Z,1.3
2018-01-22T07:36:50.864Z,1.3
2018-01-22T07:37:50.980Z,1.3
2018-01-22T07:38:50.835Z,1.2
2018-01-22T07:39:50.486Z,1.2
2018-01-22T07:40:50.594Z,1.2
2018-01-22T07:41:50.995Z,1.3
2018-01-22T07:42:50.185Z,1.3
2018-01-22T07:43:50.374Z,1.3
2018-01-22T07:44:50.250Z,1.2
2018-01-22T07:45:50.267Z,1.3
2018-01-22T07:46:49.983Z,1.3
2018-01-22T07:47:50.132Z,1.3
2018-01-22T07:48:49.953Z,1.2
2018-01-22T07:49:49.599Z,1.1
2018-01-22T07:50:49.739Z,1.1
2018-01-22T07:51:49.865Z,1.1
2018-01-22T07:52:49.495Z,1.2
2018-01-22T07:53:49.808Z,1.2
2018-01-22T07:54:49.334Z,1.2
2018-01-22T07:55:49.174Z,1.2
2018-01-22T07:56:49.382Z,1.3
2018-01-22T07:57:49.219Z,1.3
2018-01-22T07:58:49.433Z,1.3
2018-01-22T07:59:49.158Z,1.3
2018-01-22T08:00:49.147Z,1.2
2018-01-22T08:01:48.852Z,1.2
2018-01-22T08:02:48.795Z,1.2
2018-01-22T08:03:48.886Z,1.3
2018-01-22T08:04:48.736Z,1.3
2018-01-22T08:05:48.673Z,1.3
2018-01-22T08:06:48.673Z,1.3
2018-01-22T08:07:48.996Z,1.3
2018-01-22T08:08:48.286Z,1.3
2018-01-22T08:09:48.502Z,1.3
2018-01-22T08:11:48.246Z,1.3
2018-01-22T08:12:48.486Z,1.2
2018-01-22T08:13:48.040Z,1.2
2018-01-22T08:14:48.138Z,1.3
2018-01-22T08:15:48.008Z,1.2
2018-01-22T08:16:48.197Z,1.2
2018-01-22T08:17:47.938Z,1.2
2018-01-22T08:18:48.000Z,1.2
2018-01-22T08:19:48.009Z,1.3
2018-01-22T08:20:48.020Z,1.3
2018-01-22T08:21:47.682Z,1.3
2018-01-22T08:22:47.820Z,1.2
2018-01-22T08:23:47.495Z,1.3
2018-01-22T08:24:47.345Z,1.3
2018-01-22T08:25:47.460Z,1.3
2018-01-22T08:26:47.296Z,1.3
2018-01-22T08:27:47.364Z,1.3
2018-01-22T08:28:47.174Z,1.3
2018-01-22T08:29:47.058Z,1.3
2018-01-22T08:30:47.021Z,1.3
2018-01-22T08:31:46.757Z,1.3
2018-01-22T08:32:46.711Z,1.2
2018-01-22T08:33:46.939Z,1.3
2018-01-22T08:34:46.678Z,1.3
2018-01-22T08:35:46.523Z,1.3
2018-01-22T08:36:46.536Z,1.3
2018-01-22T08:37:46.442Z,1.2
2018-01-22T08:38:46.184Z,1.3
2018-01-22T08:39:46.443Z,1.2
2018-01-22T08:40:46.288Z,1.2
2018-01-22T08:41:46.190Z,1.1
2018-01-22T08:42:46.214Z,1.1
2018-01-22T08:43:46.232Z,1.1
2018-01-22T08:44:46.091Z,1.2
2018-01-22T08:45:46.248Z,1.2
2018-01-22T08:46:45.666Z,1.2
2018-01-22T08:47:45.949Z,1.2
2018-01-22T08:48:45.766Z,1.3
2018-01-22T08:49:45.724Z,1.3
2018-01-22T08:50:45.867Z,1.3
2018-01-22T08:51:45.515Z,1.2
2018-01-22T08:52:45.245Z,1.2
2018-01-22T08:53:45.547Z,1.3
2018-01-22T08:54:45.395Z,1.3
2018-01-22T08:55:45.371Z,1.3
2018-01-22T08:56:45.614Z,1.2
2018-01-22T08:57:45.004Z,1.2
2018-01-22T08:58:44.918Z,1.3
2018-01-22T08:59:45.251Z,1.3
2018-01-22T09:00:44.763Z,1.3
2018-01-22T09:01:44.988Z,1.4
2018-01-22T09:02:44.827Z,1.4
2018-01-22T09:03:45.071Z,1.4
2018-01-22T09:04:44.584Z,1.5
2018-01-22T09:05:44.588Z,1.4
2018-01-22T09:06:44.642Z,1.3
2018-01-22T09:07:44.378Z,1.4
2018-01-22T09:08:44.568Z,1.4
2018-01-22T09:09:44.270Z,1.4
2018-01-22T09:10:44.091Z,1.5
2018-01-22T09:11:44.400Z,1.4
2018-01-22T09:12:44.187Z,1.4
2018-01-22T09:13:44.041Z,1.4
2018-01-22T09:14:43.988Z,1.4
2018-01-22T09:15:43.898Z,1.4
2018-01-22T09:16:43.786Z,1.5
2018-01-22T09:17:43.974Z,1.4
2018-01-22T09:18:43.798Z,1.4
2018-01-22T09:19:43.748Z,1.5
2018-01-22T09:20:43.483Z,1.4
2018-01-22T09:21:43.504Z,1.4
2018-01-22T09:22:43.621Z,1.5
2018-01-22T09:23:43.340Z,1.5
2018-01-22T09:24:43.118Z,1.6
2018-01-22T09:25:43.648Z,1.6
2018-01-22T09:26:43.083Z,1.7
2018-01-22T09:27:43.494Z,1.6
2018-01-22T09:28:43.121Z,1.6
2018-01-22T09:29:42.743Z,1.6
2018-01-22T09:30:42.674Z,1.6
2018-01-22T09:31:42.788Z,1.5
2018-01-22T09:32:42.855Z,1.4
2018-01-22T09:33:42.744Z,1.5
2018-01-22T09:34:42.729Z,1.6
2018-01-22T09:35:42.356Z,1.6
2018-01-22T09:36:42.258Z,1.6
2018-01-22T09:37:42.316Z,1.5
2018-01-22T09:38:42.371Z,1.5
2018-01-22T09:39:42.293Z,1.6
2018-01-22T09:40:42.207Z,1.6
2018-01-22T09:41:41.895Z,1.6
2018-01-22T09:42:42.055Z,1.6
2018-01-22T09:43:41.786Z,1.6
2018-01-22T09:44:42.322Z,1.6
2018-01-22T09:45:41.794Z,1.7
2018-01-22T09:46:41.786Z,1.7
2018-01-22T09:47:41.676Z,1.7
2018-01-22T09:48:41.465Z,1.7
2018-01-22T09:49:41.599Z,1.7
2018-01-22T09:50:41.613Z,1.7
2018-01-22T09:51:41.428Z,1.7
2018-01-22T09:52:41.574Z,1.8
2018-01-22T09:53:41.291Z,1.8
2018-01-22T09:54:40.941Z,1.8
2018-01-22T09:55:41.588Z,1.8
2018-01-22T09:56:40.907Z,1.8
2018-01-22T09:57:40.948Z,1.8
2018-01-22T09:58:41.154Z,1.8
2018-01-22T09:59:40.877Z,1.8
2018-01-22T10:00:41.096Z,1.8
2018-01-22T10:01:40.853Z,1.8
2018-01-22T10:02:40.614Z,1.8
2018-01-22T10:03:40.338Z,1.8
2018-01-22T10:04:40.682Z,1.8
2018-01-22T10:05:40.662Z,1.7
2018-01-22T10:06:40.392Z,1.7
2018-01-22T10:07:40.257Z,1.8
2018-01-22T10:08:40.352Z,1.8
2018-01-22T10:09:40.062Z,1.8
2018-01-22T10:10:40.111Z,1.7
2018-01-22T10:11:40.109Z,1.7
2018-01-22T10:12:40.046Z,1.6
2018-01-22T10:13:40.086Z,1.6
2018-01-22T10:14:39.826Z,1.5
2018-01-22T10:15:39.700Z,1.6
2018-01-22T10:16:39.606Z,1.6
2018-01-22T10:17:39.553Z,1.6
2018-01-22T10:18:39.607Z,1.6
2018-01-22T10:19:39.403Z,1.6
2018-01-22T10:20:39.340Z,1.6
2018-01-22T10:21:39.567Z,1.6
2018-01-22T10:22:39.306Z,1.5
2018-01-22T10:23:39.312Z,1.6
2018-01-22T10:24:39.242Z,1.5
2018-01-22T10:25:39.056Z,1.6
2018-01-22T10:26:39.179Z,1.6
2018-01-22T10:27:38.770Z,1.6
2018-01-22T10:28:38.992Z,1.7
2018-01-22T10:29:38.728Z,1.8
2018-01-22T10:30:38.860Z,1.7
2018-01-22T10:31:38.934Z,1.8
2018-01-22T10:32:38.601Z,1.8
2018-01-22T10:33:38.457Z,1.8
2018-01-22T10:34:38.174Z,1.8
2018-01-22T10:35:38.428Z,1.9
2018-01-22T10:36:38.387Z,1.9
2018-01-22T10:37:38.377Z,1.9
2018-01-22T10:38:38.186Z,1.9
2018-01-22T10:39:38.108Z,1.9
2018-01-22T10:40:37.847Z,1.8
2018-01-22T10:41:38.108Z,1.8
2018-01-22T10:42:37.765Z,1.7
2018-01-22T10:43:37.731Z,1.8
2018-01-22T10:44:38.045Z,1.8
2018-01-22T10:45:37.973Z,1.7
2018-01-22T10:46:37.429Z,1.7
2018-01-22T10:47:38.042Z,1.7
2018-01-22T10:48:37.484Z,1.8
2018-01-22T10:49:37.289Z,1.8
2018-01-22T10:50:37.444Z,1.9
2018-01-22T10:51:37.264Z,1.8
2018-01-22T10:52:37.168Z,1.8
2018-01-22T10:53:37.268Z,1.8
2018-01-22T10:54:36.808Z,1.7
2018-01-22T10:55:36.793Z,1.8
2018-01-22T10:56:36.772Z,1.7
2018-01-22T10:57:36.795Z,1.6
2018-01-22T10:58:36.731Z,1.7
2018-01-22T10:59:36.544Z,1.6
2018-01-22T11:00:36.470Z,1.7
2018-01-22T11:01:36.501Z,1.7
2018-01-22T11:02:36.394Z,1.8
2018-01-22T11:03:36.312Z,1.8
2018-01-22T11:04:36.578Z,1.7
2018-01-22T11:05:36.085Z,1.7
2018-01-22T11:06:35.988Z,1.7
2018-01-22T11:07:36.371Z,1.7
2018-01-22T11:08:35.705Z,1.6
2018-01-22T11:09:35.719Z,1.8
2018-01-22T11:10:35.522Z,1.8
2018-01-22T11:11:35.578Z,1.8
2018-01-22T11:12:35.708Z,1.8
2018-01-22T11:13:35.809Z,1.8
2018-01-22T11:14:35.427Z,1.8
2018-01-22T11:15:35.297Z,1.8
2018-01-22T11:16:35.232Z,1.7
2018-01-22T11:17:35.177Z,1.7
2018-01-22T11:18:35.089Z,1.7
2018-01-22T11:19:34.838Z,1.8
2018-01-22T11:20:35.340Z,1.7
2018-01-22T11:21:35.058Z,1.7
2018-01-22T11:22:34.822Z,1.8
2018-01-22T11:23:34.853Z,1.9
2018-01-22T11:24:34.719Z,1.9
2018-01-22T11:25:34.594Z,1.9
2018-01-22T11:26:34.617Z,1.9
2018-01-22T11:27:34.876Z,1.8
2018-01-22T11:28:34.338Z,1.8
2018-01-22T11:29:34.294Z,1.8
2018-01-22T11:30:34.228Z,1.8
2018-01-22T11:31:34.199Z,1.8
2018-01-22T11:32:33.841Z,1.7
2018-01-22T11:33:33.976Z,1.7
2018-01-22T11:34:33.686Z,1.8
2018-01-22T11:35:33.804Z,1.8
2018-01-22T11:36:33.615Z,1.9
2018-01-22T11:37:33.629Z,1.9
2018-01-22T11:38:33.375Z,1.9
2018-01-22T11:39:33.864Z,2
2018-01-22T11:40:33.388Z,2
2018-01-22T11:41:33.323Z,2.1
2018-01-22T11:42:33.201Z,2.1
2018-01-22T11:43:33.534Z,2.1
2018-01-22T11:44:33.103Z,2.1
2018-01-22T11:45:33.022Z,2.2
2018-01-22T11:46:32.853Z,2.1
2018-01-22T11:47:32.974Z,2.1
2018-01-22T11:48:33.074Z,2
2018-01-22T11:49:32.490Z,1.9
2018-01-22T11:50:32.398Z,1.9
2018-01-22T11:51:32.430Z,1.9
2018-01-22T11:52:32.471Z,1.9
2018-01-22T11:53:32.203Z,1.9
2018-01-22T11:54:32.418Z,2
2018-01-22T11:55:32.103Z,2.1
2018-01-22T11:56:32.140Z,1.9
2018-01-22T11:57:31.955Z,2
2018-01-22T11:58:31.918Z,2
2018-01-22T11:59:31.866Z,1.9
2018-01-22T12:00:32.042Z,1.9
2018-01-22T12:01:31.699Z,1.9
2018-01-22T12:02:31.783Z,1.9
2018-01-22T12:03:31.423Z,1.9
2018-01-22T12:04:31.910Z,2
2018-01-22T12:05:31.228Z,2.1
2018-01-22T12:06:31.757Z,2.1
2018-01-22T12:07:31.388Z,2.1
2018-01-22T12:08:30.994Z,2.1
2018-01-22T12:09:31.113Z,1.9
2018-01-22T12:10:30.822Z,1.9
2018-01-22T12:11:31.015Z,1.8
2018-01-22T12:12:30.802Z,1.9
2018-01-22T12:13:30.689Z,1.9
2018-01-22T12:14:30.747Z,1.9
2018-01-22T12:15:30.539Z,1.9
2018-01-22T12:16:30.688Z,1.9
2018-01-22T12:17:30.602Z,1.9
2018-01-22T12:18:30.351Z,2
2018-01-22T12:19:30.474Z,2
2018-01-22T12:20:30.480Z,1.9
2018-01-22T12:21:30.139Z,1.9
2018-01-22T12:22:30.257Z,1.9
2018-01-22T12:23:30.029Z,1.8
2018-01-22T12:24:30.083Z,1.8
2018-01-22T12:25:30.060Z,1.6
2018-01-22T12:26:29.624Z,1.8
2018-01-22T12:27:29.497Z,1.8
2018-01-22T12:28:29.733Z,1.8
2018-01-22T12:29:29.758Z,1.9
2018-01-22T12:30:29.678Z,1.8
2018-01-22T12:31:29.288Z,1.8
2018-01-22T12:32:29.226Z,1.7
2018-01-22T12:33:29.308Z,1.7
2018-01-22T12:34:28.937Z,1.7
2018-01-22T12:35:28.893Z,1.7
2018-01-22T12:36:29.008Z,1.8
2018-01-22T12:37:28.744Z,1.8
2018-01-22T12:38:28.919Z,1.8
2018-01-22T12:39:28.855Z,1.8
2018-01-22T12:40:28.574Z,1.8
2018-01-22T12:41:28.496Z,1.7
2018-01-22T12:42:28.532Z,1.8
2018-01-22T12:43:28.466Z,1.8
2018-01-22T12:44:28.157Z,1.8
2018-01-22T12:45:28.492Z,1.9
2018-01-22T12:46:28.338Z,1.9
2018-01-22T12:47:27.930Z,1.9
2018-01-22T12:48:27.871Z,1.9
2018-01-22T12:49:27.775Z,1.9
2018-01-22T12:50:27.834Z,1.9
2018-01-22T12:51:27.601Z,1.9
2018-01-22T12:52:27.626Z,1.8
2018-01-22T12:53:28.149Z,1.9
2018-01-22T12:54:27.500Z,1.9
2018-01-22T12:55:27.273Z,1.9
2018-01-22T12:56:27.217Z,1.9
2018-01-22T12:57:27.034Z,1.8
2018-01-22T12:58:27.243Z,1.9
2018-01-22T12:59:27.005Z,1.8
2018-01-22T13:00:27.022Z,1.8
2018-01-22T13:01:27.134Z,1.8
2018-01-22T13:02:27.210Z,1.9
2018-01-22T13:03:27.031Z,1.9
2018-01-22T13:04:26.894Z,1.9
2018-01-22T13:05:26.855Z,1.8
2018-01-22T13:06:26.688Z,1.8
2018-01-22T13:07:26.627Z,1.8
2018-01-22T13:08:26.253Z,1.8
2018-01-22T13:09:26.594Z,1.7
2018-01-22T13:10:26.345Z,1.8
2018-01-22T13:11:26.477Z,1.7
2018-01-22T13:12:26.458Z,1.6
2018-01-22T13:13:26.440Z,1.7
2018-01-22T13:14:26.467Z,1.6
2018-01-22T13:15:25.901Z,1.6
2018-01-22T13:16:25.671Z,1.6
2018-01-22T13:17:25.855Z,1.5
2018-01-22T13:18:25.934Z,1.6
2018-01-22T13:19:25.796Z,1.4
2018-01-22T13:20:25.626Z,1.4
2018-01-22T13:21:25.476Z,1.3
2018-01-22T13:22:25.757Z,1.4
2018-01-22T13:23:25.274Z,1.4
2018-01-22T13:24:25.241Z,1.4
2018-01-22T13:25:25.141Z,1.4
2018-01-22T13:26:24.854Z,1.5
2018-01-22T13:27:25.079Z,1.5
2018-01-22T13:28:24.816Z,1.4
2018-01-22T13:29:24.744Z,1.4
2018-01-22T13:30:24.893Z,1.3
2018-01-22T13:31:24.597Z,1.4
2018-01-22T13:32:24.905Z,1.4
2018-01-22T13:33:24.462Z,1.5
2018-01-22T13:34:24.244Z,1.5
2018-01-22T13:35:24.154Z,1.5
2018-01-22T13:36:24.186Z,1.5
2018-01-22T13:37:24.085Z,1.6
2018-01-22T13:38:23.926Z,1.6
2018-01-22T13:39:24.095Z,1.5
2018-01-22T13:40:24.376Z,1.5
2018-01-22T13:41:23.890Z,1.4
2018-01-22T13:42:24.316Z,1.4
2018-01-22T13:43:23.823Z,1.4
2018-01-22T13:44:23.463Z,1.4
2018-01-22T13:45:23.386Z,1.5
2018-01-22T13:46:23.640Z,1.5
2018-01-22T13:47:23.323Z,1.5
2018-01-22T13:48:23.037Z,1.4
2018-01-22T13:49:23.272Z,1.4
2018-01-22T13:50:22.977Z,1.4
2018-01-22T13:51:22.904Z,1.4
2018-01-22T13:52:22.940Z,1.3
2018-01-22T13:53:22.775Z,1.3
2018-01-22T13:54:22.673Z,1.3
2018-01-22T13:55:22.478Z,1.3
2018-01-22T13:56:22.781Z,1.4
2018-01-22T13:57:22.943Z,1.4
2018-01-22T13:58:22.566Z,1.3
2018-01-22T13:59:22.429Z,1.3
2018-01-22T14:00:22.467Z,1.3
2018-01-22T14:01:22.136Z,1.3
2018-01-22T14:02:22.340Z,1.1
2018-01-22T14:03:22.043Z,1.1
2018-01-22T14:04:22.180Z,1.1
2018-01-22T14:05:21.811Z,1.1
2018-01-22T14:06:21.830Z,1.1
2018-01-22T14:07:21.702Z,1.2
2018-01-22T14:08:21.642Z,1.1
2018-01-22T14:09:21.462Z,1.1
2018-01-22T14:10:21.681Z,1.1
2018-01-22T14:11:21.419Z,1.1
2018-01-22T14:12:21.535Z,1.1
2018-01-22T14:13:21.428Z,1.1
2018-01-22T14:14:21.541Z,1.1
2018-01-22T14:15:21.042Z,1.1